sensor_id;sensor_type;location;lat;lon;timestamp;temperature;humidity
23721;DHT22;42950;52.134;5.578;2023-04-03T00:01:14;4.20;99.90
23721;DHT22;42950;52.134;5.578;2023-04-03T00:03:40;4.20;99.90
23721;DHT22;42950;52.134;5.578;2023-04-03T00:06:10;4.10;99.90
23721;DHT22;42950;52.134;5.578;2023-04-03T00:08:37;4.10;99.90
23721;DHT22;42950;52.134;5.578;2023-04-03T00:11:04;4.10;99.90
23721;DHT22;42950;52.134;5.578;2023-04-03T00:13:30;4.10;99.90
23721;DHT22;42950;52.134;5.578;2023-04-03T00:15:56;4.00;99.90
23721;DHT22;42950;52.134;5.578;2023-04-03T00:18:22;4.00;99.90
23721;DHT22;42950;52.134;5.578;2023-04-03T00:20:48;4.00;99.90
23721;DHT22;42950;52.134;5.578;2023-04-03T00:23:14;4.00;99.90
23721;DHT22;42950;52.134;5.578;2023-04-03T00:25:40;4.00;99.90
23721;DHT22;42950;52.134;5.578;2023-04-03T00:28:07;3.90;99.90
23721;DHT22;42950;52.134;5.578;2023-04-03T00:30:33;3.90;99.90
23721;DHT22;42950;52.134;5.578;2023-04-03T00:32:59;3.90;99.90
23721;DHT22;42950;52.134;5.578;2023-04-03T00:35:27;3.90;99.90
23721;DHT22;42950;52.134;5.578;2023-04-03T00:37:54;3.80;99.90
23721;DHT22;42950;52.134;5.578;2023-04-03T00:40:24;3.90;99.90
23721;DHT22;42950;52.134;5.578;2023-04-03T00:42:59;3.80;99.90
23721;DHT22;42950;52.134;5.578;2023-04-03T00:45:34;3.80;99.90
23721;DHT22;42950;52.134;5.578;2023-04-03T00:48:04;3.80;99.90
23721;DHT22;42950;52.134;5.578;2023-04-03T00:50:33;3.80;99.90
23721;DHT22;42950;52.134;5.578;2023-04-03T00:53:00;3.70;99.90
23721;DHT22;42950;52.134;5.578;2023-04-03T00:55:26;3.70;99.90
23721;DHT22;42950;52.134;5.578;2023-04-03T00:57:53;3.70;99.90
23721;DHT22;42950;52.134;5.578;2023-04-03T01:00:21;3.70;99.90
23721;DHT22;42950;52.134;5.578;2023-04-03T01:02:49;3.70;99.90
23721;DHT22;42950;52.134;5.578;2023-04-03T01:05:16;3.70;99.90
23721;DHT22;42950;52.134;5.578;2023-04-03T01:07:43;3.70;99.90
23721;DHT22;42950;52.134;5.578;2023-04-03T01:10:11;3.70;99.90
23721;DHT22;42950;52.134;5.578;2023-04-03T01:12:42;3.70;99.90
23721;DHT22;42950;52.134;5.578;2023-04-03T01:15:23;3.60;99.90
23721;DHT22;42950;52.134;5.578;2023-04-03T01:17:52;3.60;99.90
23721;DHT22;42950;52.134;5.578;2023-04-03T01:25:38;3.50;99.90
23721;DHT22;42950;52.134;5.578;2023-04-03T01:28:06;3.50;99.90
23721;DHT22;42950;52.134;5.578;2023-04-03T01:30:45;3.40;99.90
23721;DHT22;42950;52.134;5.578;2023-04-03T01:33:13;3.40;99.90
23721;DHT22;42950;52.134;5.578;2023-04-03T01:35:39;3.40;99.90
23721;DHT22;42950;52.134;5.578;2023-04-03T01:38:05;3.30;99.90
23721;DHT22;42950;52.134;5.578;2023-04-03T01:40:31;3.30;99.90
23721;DHT22;42950;52.134;5.578;2023-04-03T01:42:57;3.30;99.90
23721;DHT22;42950;52.134;5.578;2023-04-03T01:45:22;3.30;99.90
23721;DHT22;42950;52.134;5.578;2023-04-03T01:47:48;3.30;99.90
23721;DHT22;42950;52.134;5.578;2023-04-03T01:50:14;3.30;99.90
23721;DHT22;42950;52.134;5.578;2023-04-03T01:52:39;3.30;99.90
23721;DHT22;42950;52.134;5.578;2023-04-03T01:55:06;3.30;99.90
23721;DHT22;42950;52.134;5.578;2023-04-03T01:57:31;3.20;99.90
23721;DHT22;42950;52.134;5.578;2023-04-03T01:59:57;3.30;99.90
23721;DHT22;42950;52.134;5.578;2023-04-03T02:02:23;3.20;99.90
23721;DHT22;42950;52.134;5.578;2023-04-03T02:04:48;3.20;99.90
23721;DHT22;42950;52.134;5.578;2023-04-03T02:07:14;3.10;99.90
23721;DHT22;42950;52.134;5.578;2023-04-03T02:09:41;3.10;99.90
23721;DHT22;42950;52.134;5.578;2023-04-03T02:12:06;3.10;99.90
23721;DHT22;42950;52.134;5.578;2023-04-03T02:14:32;3.10;99.90
23721;DHT22;42950;52.134;5.578;2023-04-03T02:16:58;3.10;99.90
23721;DHT22;42950;52.134;5.578;2023-04-03T02:19:27;3.10;99.90
23721;DHT22;42950;52.134;5.578;2023-04-03T02:21:52;3.10;99.90
23721;DHT22;42950;52.134;5.578;2023-04-03T02:24:18;3.00;99.90
23721;DHT22;42950;52.134;5.578;2023-04-03T02:26:44;3.00;99.90
23721;DHT22;42950;52.134;5.578;2023-04-03T02:29:10;3.00;99.90
23721;DHT22;42950;52.134;5.578;2023-04-03T02:31:35;2.90;99.90
23721;DHT22;42950;52.134;5.578;2023-04-03T02:34:01;2.90;99.90
23721;DHT22;42950;52.134;5.578;2023-04-03T02:36:27;2.90;99.90
23721;DHT22;42950;52.134;5.578;2023-04-03T02:38:52;2.90;99.90
23721;DHT22;42950;52.134;5.578;2023-04-03T02:41:18;2.90;99.90
23721;DHT22;42950;52.134;5.578;2023-04-03T02:43:43;2.90;99.90
23721;DHT22;42950;52.134;5.578;2023-04-03T02:46:09;2.90;99.90
23721;DHT22;42950;52.134;5.578;2023-04-03T02:48:36;2.80;99.90
23721;DHT22;42950;52.134;5.578;2023-04-03T02:51:02;2.80;99.90
23721;DHT22;42950;52.134;5.578;2023-04-03T02:53:27;2.90;99.90
23721;DHT22;42950;52.134;5.578;2023-04-03T02:55:53;2.80;99.90
23721;DHT22;42950;52.134;5.578;2023-04-03T02:58:19;2.80;99.90
23721;DHT22;42950;52.134;5.578;2023-04-03T03:00:45;2.80;99.90
23721;DHT22;42950;52.134;5.578;2023-04-03T03:03:16;2.80;99.90
23721;DHT22;42950;52.134;5.578;2023-04-03T03:05:43;2.80;99.90
23721;DHT22;42950;52.134;5.578;2023-04-03T03:08:08;2.80;99.90
23721;DHT22;42950;52.134;5.578;2023-04-03T03:10:34;2.70;99.90
23721;DHT22;42950;52.134;5.578;2023-04-03T03:13:00;2.70;99.90
23721;DHT22;42950;52.134;5.578;2023-04-03T03:15:26;2.70;99.90
23721;DHT22;42950;52.134;5.578;2023-04-03T03:17:52;2.70;99.90
23721;DHT22;42950;52.134;5.578;2023-04-03T03:20:17;2.70;99.90
23721;DHT22;42950;52.134;5.578;2023-04-03T03:22:44;2.70;99.90
23721;DHT22;42950;52.134;5.578;2023-04-03T03:25:11;2.70;99.90
23721;DHT22;42950;52.134;5.578;2023-04-03T03:27:37;2.70;99.90
23721;DHT22;42950;52.134;5.578;2023-04-03T03:30:04;2.70;99.90
23721;DHT22;42950;52.134;5.578;2023-04-03T03:32:31;2.70;99.90
23721;DHT22;42950;52.134;5.578;2023-04-03T03:34:56;2.70;99.90
23721;DHT22;42950;52.134;5.578;2023-04-03T03:37:22;2.70;99.90
23721;DHT22;42950;52.134;5.578;2023-04-03T03:39:47;2.70;99.90
23721;DHT22;42950;52.134;5.578;2023-04-03T03:42:14;2.60;99.90
23721;DHT22;42950;52.134;5.578;2023-04-03T03:44:40;2.60;99.90
23721;DHT22;42950;52.134;5.578;2023-04-03T03:47:05;2.50;99.90
23721;DHT22;42950;52.134;5.578;2023-04-03T03:49:31;2.50;99.90
23721;DHT22;42950;52.134;5.578;2023-04-03T03:51:57;2.50;99.90
23721;DHT22;42950;52.134;5.578;2023-04-03T03:54:22;2.50;99.90
23721;DHT22;42950;52.134;5.578;2023-04-03T03:56:48;2.50;99.90
23721;DHT22;42950;52.134;5.578;2023-04-03T03:59:14;2.40;99.90
23721;DHT22;42950;52.134;5.578;2023-04-03T04:01:39;2.50;99.90
23721;DHT22;42950;52.134;5.578;2023-04-03T04:04:05;2.40;99.90
23721;DHT22;42950;52.134;5.578;2023-04-03T04:06:31;2.40;99.90
23721;DHT22;42950;52.134;5.578;2023-04-03T04:08:56;2.40;99.90
23721;DHT22;42950;52.134;5.578;2023-04-03T04:11:22;2.40;99.90
23721;DHT22;42950;52.134;5.578;2023-04-03T04:13:48;2.30;99.90
23721;DHT22;42950;52.134;5.578;2023-04-03T04:16:14;2.30;99.90
23721;DHT22;42950;52.134;5.578;2023-04-03T04:18:39;2.30;99.90
23721;DHT22;42950;52.134;5.578;2023-04-03T04:21:05;2.20;99.90
23721;DHT22;42950;52.134;5.578;2023-04-03T04:23:31;2.20;99.90
23721;DHT22;42950;52.134;5.578;2023-04-03T04:25:57;2.20;99.90
23721;DHT22;42950;52.134;5.578;2023-04-03T04:28:23;2.30;99.90
23721;DHT22;42950;52.134;5.578;2023-04-03T04:30:49;2.30;99.90
23721;DHT22;42950;52.134;5.578;2023-04-03T04:33:15;2.30;99.90
23721;DHT22;42950;52.134;5.578;2023-04-03T04:35:42;2.20;99.90
23721;DHT22;42950;52.134;5.578;2023-04-03T04:38:08;2.20;99.90
23721;DHT22;42950;52.134;5.578;2023-04-03T04:40:34;2.20;99.90
23721;DHT22;42950;52.134;5.578;2023-04-03T04:43:00;2.10;99.90
23721;DHT22;42950;52.134;5.578;2023-04-03T04:45:27;2.10;99.90
23721;DHT22;42950;52.134;5.578;2023-04-03T04:47:55;2.10;99.90
23721;DHT22;42950;52.134;5.578;2023-04-03T04:50:22;2.10;99.90
23721;DHT22;42950;52.134;5.578;2023-04-03T04:52:48;2.10;99.90
23721;DHT22;42950;52.134;5.578;2023-04-03T04:55:13;2.10;99.90
23721;DHT22;42950;52.134;5.578;2023-04-03T04:57:39;2.10;99.90
23721;DHT22;42950;52.134;5.578;2023-04-03T05:00:05;2.10;99.90
23721;DHT22;42950;52.134;5.578;2023-04-03T05:02:31;2.00;99.90
23721;DHT22;42950;52.134;5.578;2023-04-03T05:04:57;2.00;99.90
23721;DHT22;42950;52.134;5.578;2023-04-03T05:07:23;2.00;99.90
23721;DHT22;42950;52.134;5.578;2023-04-03T05:09:49;2.00;99.90
23721;DHT22;42950;52.134;5.578;2023-04-03T05:12:16;1.90;99.90
23721;DHT22;42950;52.134;5.578;2023-04-03T05:14:42;1.90;99.90
23721;DHT22;42950;52.134;5.578;2023-04-03T05:17:08;1.90;99.90
23721;DHT22;42950;52.134;5.578;2023-04-03T05:19:34;1.90;99.90
23721;DHT22;42950;52.134;5.578;2023-04-03T05:22:01;1.90;99.90
23721;DHT22;42950;52.134;5.578;2023-04-03T05:24:26;2.00;99.90
23721;DHT22;42950;52.134;5.578;2023-04-03T05:26:53;1.90;99.90
23721;DHT22;42950;52.134;5.578;2023-04-03T05:29:19;1.90;99.90
23721;DHT22;42950;52.134;5.578;2023-04-03T05:31:45;1.80;99.90
23721;DHT22;42950;52.134;5.578;2023-04-03T05:34:10;1.80;99.90
23721;DHT22;42950;52.134;5.578;2023-04-03T05:36:36;1.80;99.90
23721;DHT22;42950;52.134;5.578;2023-04-03T05:39:02;1.80;99.90
23721;DHT22;42950;52.134;5.578;2023-04-03T05:41:28;1.80;99.90
23721;DHT22;42950;52.134;5.578;2023-04-03T05:43:54;1.80;99.90
23721;DHT22;42950;52.134;5.578;2023-04-03T05:46:20;1.80;99.90
23721;DHT22;42950;52.134;5.578;2023-04-03T05:48:46;1.80;99.90
23721;DHT22;42950;52.134;5.578;2023-04-03T05:51:22;1.80;99.90
23721;DHT22;42950;52.134;5.578;2023-04-03T05:53:49;1.80;99.90
23721;DHT22;42950;52.134;5.578;2023-04-03T05:56:17;1.80;99.90
23721;DHT22;42950;52.134;5.578;2023-04-03T05:58:43;1.90;99.90
23721;DHT22;42950;52.134;5.578;2023-04-03T06:01:08;1.90;99.90
23721;DHT22;42950;52.134;5.578;2023-04-03T06:03:34;1.90;99.90
23721;DHT22;42950;52.134;5.578;2023-04-03T06:06:03;1.90;99.90
23721;DHT22;42950;52.134;5.578;2023-04-03T06:08:28;1.90;99.90
23721;DHT22;42950;52.134;5.578;2023-04-03T06:10:54;1.90;99.90
23721;DHT22;42950;52.134;5.578;2023-04-03T06:13:20;1.90;99.90
23721;DHT22;42950;52.134;5.578;2023-04-03T06:15:46;2.00;99.90
23721;DHT22;42950;52.134;5.578;2023-04-03T06:18:12;2.00;99.90
23721;DHT22;42950;52.134;5.578;2023-04-03T06:20:37;2.00;99.90
23721;DHT22;42950;52.134;5.578;2023-04-03T06:23:03;2.10;99.90
23721;DHT22;42950;52.134;5.578;2023-04-03T06:25:28;2.10;99.90
23721;DHT22;42950;52.134;5.578;2023-04-03T06:27:54;2.20;99.90
23721;DHT22;42950;52.134;5.578;2023-04-03T06:30:21;2.20;99.90
23721;DHT22;42950;52.134;5.578;2023-04-03T06:32:46;2.30;99.90
23721;DHT22;42950;52.134;5.578;2023-04-03T06:35:12;2.30;99.90
23721;DHT22;42950;52.134;5.578;2023-04-03T06:37:37;2.30;99.90
23721;DHT22;42950;52.134;5.578;2023-04-03T06:40:03;2.30;99.90
23721;DHT22;42950;52.134;5.578;2023-04-03T06:42:30;2.40;99.90
23721;DHT22;42950;52.134;5.578;2023-04-03T06:44:55;2.40;99.90
23721;DHT22;42950;52.134;5.578;2023-04-03T06:47:21;2.40;99.90
23721;DHT22;42950;52.134;5.578;2023-04-03T06:49:46;2.50;99.90
23721;DHT22;42950;52.134;5.578;2023-04-03T06:52:13;2.50;99.90
23721;DHT22;42950;52.134;5.578;2023-04-03T06:54:39;2.50;99.90
23721;DHT22;42950;52.134;5.578;2023-04-03T06:57:06;2.70;99.90
23721;DHT22;42950;52.134;5.578;2023-04-03T06:59:32;2.70;99.90
23721;DHT22;42950;52.134;5.578;2023-04-03T07:01:57;2.70;99.90
23721;DHT22;42950;52.134;5.578;2023-04-03T07:04:25;2.80;99.90
23721;DHT22;42950;52.134;5.578;2023-04-03T07:06:50;2.90;99.90
23721;DHT22;42950;52.134;5.578;2023-04-03T07:09:16;2.90;99.90
23721;DHT22;42950;52.134;5.578;2023-04-03T07:11:41;3.00;99.90
23721;DHT22;42950;52.134;5.578;2023-04-03T07:14:07;3.00;99.90
23721;DHT22;42950;52.134;5.578;2023-04-03T07:16:34;3.00;99.90
23721;DHT22;42950;52.134;5.578;2023-04-03T07:19:00;3.10;99.90
23721;DHT22;42950;52.134;5.578;2023-04-03T07:21:27;3.20;99.90
23721;DHT22;42950;52.134;5.578;2023-04-03T07:23:53;3.20;99.90
23721;DHT22;42950;52.134;5.578;2023-04-03T07:26:18;3.30;99.90
23721;DHT22;42950;52.134;5.578;2023-04-03T07:28:46;3.40;99.90
23721;DHT22;42950;52.134;5.578;2023-04-03T07:31:15;3.40;99.90
23721;DHT22;42950;52.134;5.578;2023-04-03T07:33:41;3.60;99.90
23721;DHT22;42950;52.134;5.578;2023-04-03T07:36:08;3.60;99.90
23721;DHT22;42950;52.134;5.578;2023-04-03T07:38:34;3.70;99.90
23721;DHT22;42950;52.134;5.578;2023-04-03T07:41:02;3.70;99.90
23721;DHT22;42950;52.134;5.578;2023-04-03T07:43:28;3.80;99.90
23721;DHT22;42950;52.134;5.578;2023-04-03T07:45:53;3.90;99.90
23721;DHT22;42950;52.134;5.578;2023-04-03T07:48:24;4.00;99.90
23721;DHT22;42950;52.134;5.578;2023-04-03T07:50:51;4.10;99.90
23721;DHT22;42950;52.134;5.578;2023-04-03T07:53:18;4.20;99.90
23721;DHT22;42950;52.134;5.578;2023-04-03T07:55:47;4.30;99.90
23721;DHT22;42950;52.134;5.578;2023-04-03T07:58:15;4.30;99.90
23721;DHT22;42950;52.134;5.578;2023-04-03T08:00:42;4.50;99.90
23721;DHT22;42950;52.134;5.578;2023-04-03T08:03:10;4.50;99.90
23721;DHT22;42950;52.134;5.578;2023-04-03T08:05:37;4.60;99.90
23721;DHT22;42950;52.134;5.578;2023-04-03T08:08:04;4.70;99.90
23721;DHT22;42950;52.134;5.578;2023-04-03T08:10:30;4.80;99.90
23721;DHT22;42950;52.134;5.578;2023-04-03T08:12:56;4.90;99.90
23721;DHT22;42950;52.134;5.578;2023-04-03T08:15:21;4.90;99.90
23721;DHT22;42950;52.134;5.578;2023-04-03T08:17:47;5.00;99.90
23721;DHT22;42950;52.134;5.578;2023-04-03T08:20:13;5.10;99.90
23721;DHT22;42950;52.134;5.578;2023-04-03T08:22:38;5.20;99.90
23721;DHT22;42950;52.134;5.578;2023-04-03T08:25:05;5.30;99.90
23721;DHT22;42950;52.134;5.578;2023-04-03T08:27:31;5.40;99.90
23721;DHT22;42950;52.134;5.578;2023-04-03T08:29:56;5.50;99.90
23721;DHT22;42950;52.134;5.578;2023-04-03T08:32:22;5.60;99.90
23721;DHT22;42950;52.134;5.578;2023-04-03T08:34:49;5.80;99.90
23721;DHT22;42950;52.134;5.578;2023-04-03T08:37:15;5.90;99.90
23721;DHT22;42950;52.134;5.578;2023-04-03T08:39:42;6.00;99.90
23721;DHT22;42950;52.134;5.578;2023-04-03T08:42:32;6.10;99.90
23721;DHT22;42950;52.134;5.578;2023-04-03T08:45:09;6.20;99.90
23721;DHT22;42950;52.134;5.578;2023-04-03T08:47:52;6.40;99.90
23721;DHT22;42950;52.134;5.578;2023-04-03T08:50:44;6.50;99.90
23721;DHT22;42950;52.134;5.578;2023-04-03T08:53:21;6.60;99.90
23721;DHT22;42950;52.134;5.578;2023-04-03T08:55:49;6.80;99.90
23721;DHT22;42950;52.134;5.578;2023-04-03T08:58:19;6.80;99.90
23721;DHT22;42950;52.134;5.578;2023-04-03T09:03:23;7.10;99.90
23721;DHT22;42950;52.134;5.578;2023-04-03T09:08:33;7.30;99.90
23721;DHT22;42950;52.134;5.578;2023-04-03T09:11:16;7.30;99.90
23721;DHT22;42950;52.134;5.578;2023-04-03T09:13:53;7.50;99.90
23721;DHT22;42950;52.134;5.578;2023-04-03T09:16:28;7.70;99.90
23721;DHT22;42950;52.134;5.578;2023-04-03T09:19:06;7.70;99.90
23721;DHT22;42950;52.134;5.578;2023-04-03T09:21:38;7.80;99.90
23721;DHT22;42950;52.134;5.578;2023-04-03T09:24:09;7.80;99.90
23721;DHT22;42950;52.134;5.578;2023-04-03T09:26:51;7.90;99.90
23721;DHT22;42950;52.134;5.578;2023-04-03T09:29:21;8.10;99.90
23721;DHT22;42950;52.134;5.578;2023-04-03T09:31:49;8.30;99.90
23721;DHT22;42950;52.134;5.578;2023-04-03T09:34:18;8.30;99.90
23721;DHT22;42950;52.134;5.578;2023-04-03T09:36:49;8.30;99.90
23721;DHT22;42950;52.134;5.578;2023-04-03T09:39:29;8.50;99.90
23721;DHT22;42950;52.134;5.578;2023-04-03T09:42:04;8.70;99.90
23721;DHT22;42950;52.134;5.578;2023-04-03T09:44:35;8.90;99.90
23721;DHT22;42950;52.134;5.578;2023-04-03T09:49:46;9.30;99.90
23721;DHT22;42950;52.134;5.578;2023-04-03T09:52:38;9.50;99.90
23721;DHT22;42950;52.134;5.578;2023-04-03T09:55:13;9.50;99.90
23721;DHT22;42950;52.134;5.578;2023-04-03T09:57:39;9.40;99.90
23721;DHT22;42950;52.134;5.578;2023-04-03T10:00:10;9.40;99.90
23721;DHT22;42950;52.134;5.578;2023-04-03T10:02:44;9.40;99.90
23721;DHT22;42950;52.134;5.578;2023-04-03T10:05:36;9.60;99.90
23721;DHT22;42950;52.134;5.578;2023-04-03T10:10:48;10.00;99.90
23721;DHT22;42950;52.134;5.578;2023-04-03T10:13:29;10.10;99.90
23721;DHT22;42950;52.134;5.578;2023-04-03T10:15:56;10.40;99.90
23721;DHT22;42950;52.134;5.578;2023-04-03T10:18:46;10.60;99.90
23721;DHT22;42950;52.134;5.578;2023-04-03T10:24:23;10.90;99.90
23721;DHT22;42950;52.134;5.578;2023-04-03T10:26:57;10.70;99.90
23721;DHT22;42950;52.134;5.578;2023-04-03T10:32:23;10.60;99.90
23721;DHT22;42950;52.134;5.578;2023-04-03T10:34:57;10.70;99.90
23721;DHT22;42950;52.134;5.578;2023-04-03T10:38:01;10.80;99.90
23721;DHT22;42950;52.134;5.578;2023-04-03T10:41:07;10.90;99.90
23721;DHT22;42950;52.134;5.578;2023-04-03T10:43:45;10.80;99.90
23721;DHT22;42950;52.134;5.578;2023-04-03T10:46:38;10.90;99.90
23721;DHT22;42950;52.134;5.578;2023-04-03T10:49:21;10.80;99.90
23721;DHT22;42950;52.134;5.578;2023-04-03T10:52:36;11.00;99.90
23721;DHT22;42950;52.134;5.578;2023-04-03T10:57:47;10.90;99.90
23721;DHT22;42950;52.134;5.578;2023-04-03T11:00:25;11.10;99.90
23721;DHT22;42950;52.134;5.578;2023-04-03T11:02:59;11.30;99.90
23721;DHT22;42950;52.134;5.578;2023-04-03T11:05:39;11.40;99.90
23721;DHT22;42950;52.134;5.578;2023-04-03T11:08:18;11.50;99.90
23721;DHT22;42950;52.134;5.578;2023-04-03T11:10:49;11.60;99.90
23721;DHT22;42950;52.134;5.578;2023-04-03T11:13:34;11.50;99.90
23721;DHT22;42950;52.134;5.578;2023-04-03T11:16:02;11.50;99.90
23721;DHT22;42950;52.134;5.578;2023-04-03T11:18:51;11.60;99.90
23721;DHT22;42950;52.134;5.578;2023-04-03T11:21:22;11.60;99.90
23721;DHT22;42950;52.134;5.578;2023-04-03T11:23:51;11.50;99.90
23721;DHT22;42950;52.134;5.578;2023-04-03T11:26:26;11.60;99.90
23721;DHT22;42950;52.134;5.578;2023-04-03T11:28:57;11.50;99.90
23721;DHT22;42950;52.134;5.578;2023-04-03T11:34:30;11.80;99.90
23721;DHT22;42950;52.134;5.578;2023-04-03T11:37:00;11.80;99.90
23721;DHT22;42950;52.134;5.578;2023-04-03T11:39:32;11.90;99.90
23721;DHT22;42950;52.134;5.578;2023-04-03T11:42:27;12.00;99.90
23721;DHT22;42950;52.134;5.578;2023-04-03T11:48:02;12.10;99.90
23721;DHT22;42950;52.134;5.578;2023-04-03T11:53:47;12.20;99.90
23721;DHT22;42950;52.134;5.578;2023-04-03T11:58:34;12.20;99.90
23721;DHT22;42950;52.134;5.578;2023-04-03T12:16:03;12.60;99.90
23721;DHT22;42950;52.134;5.578;2023-04-03T12:21:08;12.70;99.90
23721;DHT22;42950;52.134;5.578;2023-04-03T12:23:36;12.80;99.90
23721;DHT22;42950;52.134;5.578;2023-04-03T12:26:21;13.00;99.90
23721;DHT22;42950;52.134;5.578;2023-04-03T12:28:48;13.00;99.90
23721;DHT22;42950;52.134;5.578;2023-04-03T12:31:15;12.90;99.90
23721;DHT22;42950;52.134;5.578;2023-04-03T12:34:12;12.80;99.90
23721;DHT22;42950;52.134;5.578;2023-04-03T12:37:02;12.80;99.90
23721;DHT22;42950;52.134;5.578;2023-04-03T12:45:00;12.60;99.90
23721;DHT22;42950;52.134;5.578;2023-04-03T12:47:35;12.80;99.90
23721;DHT22;42950;52.134;5.578;2023-04-03T12:50:13;12.80;99.90
23721;DHT22;42950;52.134;5.578;2023-04-03T12:52:44;12.90;99.90
23721;DHT22;42950;52.134;5.578;2023-04-03T12:55:19;12.80;99.90
23721;DHT22;42950;52.134;5.578;2023-04-03T12:57:45;12.80;99.90
23721;DHT22;42950;52.134;5.578;2023-04-03T13:02:56;12.80;99.90
23721;DHT22;42950;52.134;5.578;2023-04-03T13:05:23;12.90;99.90
23721;DHT22;42950;52.134;5.578;2023-04-03T13:08:02;12.80;99.90
23721;DHT22;42950;52.134;5.578;2023-04-03T13:10:30;12.80;99.90
23721;DHT22;42950;52.134;5.578;2023-04-03T13:13:06;12.90;99.90
23721;DHT22;42950;52.134;5.578;2023-04-03T13:15:47;13.00;99.90
23721;DHT22;42950;52.134;5.578;2023-04-03T13:21:07;13.10;99.90
23721;DHT22;42950;52.134;5.578;2023-04-03T13:23:36;13.10;99.90
23721;DHT22;42950;52.134;5.578;2023-04-03T13:26:04;13.10;99.90
23721;DHT22;42950;52.134;5.578;2023-04-03T13:28:31;13.10;99.90
23721;DHT22;42950;52.134;5.578;2023-04-03T13:31:05;13.10;99.90
23721;DHT22;42950;52.134;5.578;2023-04-03T13:33:34;13.10;99.90
23721;DHT22;42950;52.134;5.578;2023-04-03T13:36:16;12.90;99.90
23721;DHT22;42950;52.134;5.578;2023-04-03T13:38:42;12.80;99.90
23721;DHT22;42950;52.134;5.578;2023-04-03T13:41:31;12.80;99.90
23721;DHT22;42950;52.134;5.578;2023-04-03T13:46:46;12.80;99.90
23721;DHT22;42950;52.134;5.578;2023-04-03T13:51:48;12.90;99.90
23721;DHT22;42950;52.134;5.578;2023-04-03T13:54:41;12.80;99.90
23721;DHT22;42950;52.134;5.578;2023-04-03T13:57:16;12.90;99.90
23721;DHT22;42950;52.134;5.578;2023-04-03T13:59:42;13.10;99.90
23721;DHT22;42950;52.134;5.578;2023-04-03T14:07:02;13.40;99.90
23721;DHT22;42950;52.134;5.578;2023-04-03T14:09:28;13.50;99.90
23721;DHT22;42950;52.134;5.578;2023-04-03T14:11:57;13.50;99.90
23721;DHT22;42950;52.134;5.578;2023-04-03T14:14:27;13.30;99.90
23721;DHT22;42950;52.134;5.578;2023-04-03T14:16:57;13.40;99.90
23721;DHT22;42950;52.134;5.578;2023-04-03T14:19:32;13.50;99.90
23721;DHT22;42950;52.134;5.578;2023-04-03T14:21:59;13.20;99.90
23721;DHT22;42950;52.134;5.578;2023-04-03T14:24:26;13.30;99.90
23721;DHT22;42950;52.134;5.578;2023-04-03T14:26:53;13.60;99.90
23721;DHT22;42950;52.134;5.578;2023-04-03T14:29:20;13.50;99.90
23721;DHT22;42950;52.134;5.578;2023-04-03T14:31:49;13.50;99.90
23721;DHT22;42950;52.134;5.578;2023-04-03T14:34:15;13.30;99.90
23721;DHT22;42950;52.134;5.578;2023-04-03T14:36:42;13.10;99.90
23721;DHT22;42950;52.134;5.578;2023-04-03T14:39:11;13.10;99.90
23721;DHT22;42950;52.134;5.578;2023-04-03T14:41:42;13.20;99.90
23721;DHT22;42950;52.134;5.578;2023-04-03T14:44:07;13.30;99.90
23721;DHT22;42950;52.134;5.578;2023-04-03T14:46:35;13.10;99.90
23721;DHT22;42950;52.134;5.578;2023-04-03T14:49:03;13.10;99.90
23721;DHT22;42950;52.134;5.578;2023-04-03T14:51:33;13.10;99.90
23721;DHT22;42950;52.134;5.578;2023-04-03T14:53:59;13.40;99.90
23721;DHT22;42950;52.134;5.578;2023-04-03T14:56:26;13.30;99.90
23721;DHT22;42950;52.134;5.578;2023-04-03T14:58:57;13.40;99.90
23721;DHT22;42950;52.134;5.578;2023-04-03T15:01:23;13.50;99.90
23721;DHT22;42950;52.134;5.578;2023-04-03T15:03:49;13.20;99.90
23721;DHT22;42950;52.134;5.578;2023-04-03T15:06:15;13.20;99.90
23721;DHT22;42950;52.134;5.578;2023-04-03T15:08:41;13.30;99.90
23721;DHT22;42950;52.134;5.578;2023-04-03T15:11:09;13.20;99.90
23721;DHT22;42950;52.134;5.578;2023-04-03T15:13:35;13.20;99.90
23721;DHT22;42950;52.134;5.578;2023-04-03T15:16:01;13.20;99.90
23721;DHT22;42950;52.134;5.578;2023-04-03T15:18:30;13.20;99.90
23721;DHT22;42950;52.134;5.578;2023-04-03T15:20:57;13.10;99.90
23721;DHT22;42950;52.134;5.578;2023-04-03T15:23:23;13.00;99.90
23721;DHT22;42950;52.134;5.578;2023-04-03T15:25:52;13.10;99.90
23721;DHT22;42950;52.134;5.578;2023-04-03T15:28:30;13.20;99.90
23721;DHT22;42950;52.134;5.578;2023-04-03T15:30:56;13.20;99.90
23721;DHT22;42950;52.134;5.578;2023-04-03T15:33:22;13.30;99.90
23721;DHT22;42950;52.134;5.578;2023-04-03T15:35:48;13.20;99.90
23721;DHT22;42950;52.134;5.578;2023-04-03T15:38:14;13.00;99.90
23721;DHT22;42950;52.134;5.578;2023-04-03T15:40:40;13.00;99.90
23721;DHT22;42950;52.134;5.578;2023-04-03T15:43:07;13.10;99.90
23721;DHT22;42950;52.134;5.578;2023-04-03T15:45:34;13.00;99.90
23721;DHT22;42950;52.134;5.578;2023-04-03T15:48:00;13.10;99.90
23721;DHT22;42950;52.134;5.578;2023-04-03T15:50:26;12.80;99.90
23721;DHT22;42950;52.134;5.578;2023-04-03T15:52:52;12.70;99.90
23721;DHT22;42950;52.134;5.578;2023-04-03T15:55:28;12.70;99.90
23721;DHT22;42950;52.134;5.578;2023-04-03T15:57:54;12.50;99.90
23721;DHT22;42950;52.134;5.578;2023-04-03T16:00:20;12.40;99.90
23721;DHT22;42950;52.134;5.578;2023-04-03T16:02:49;12.50;99.90
23721;DHT22;42950;52.134;5.578;2023-04-03T16:05:17;12.30;99.90
23721;DHT22;42950;52.134;5.578;2023-04-03T16:07:43;12.30;99.90
23721;DHT22;42950;52.134;5.578;2023-04-03T16:10:11;12.20;99.90
23721;DHT22;42950;52.134;5.578;2023-04-03T16:12:37;12.30;99.90
23721;DHT22;42950;52.134;5.578;2023-04-03T16:15:03;12.20;99.90
23721;DHT22;42950;52.134;5.578;2023-04-03T16:17:29;12.00;99.90
23721;DHT22;42950;52.134;5.578;2023-04-03T16:19:55;11.80;99.90
23721;DHT22;42950;52.134;5.578;2023-04-03T16:22:22;11.80;99.90
23721;DHT22;42950;52.134;5.578;2023-04-03T16:24:49;11.80;99.90
23721;DHT22;42950;52.134;5.578;2023-04-03T16:27:15;11.60;99.90
23721;DHT22;42950;52.134;5.578;2023-04-03T16:29:41;11.60;99.90
23721;DHT22;42950;52.134;5.578;2023-04-03T16:32:06;11.50;99.90
23721;DHT22;42950;52.134;5.578;2023-04-03T16:34:32;11.40;99.90
23721;DHT22;42950;52.134;5.578;2023-04-03T16:36:58;11.30;99.90
23721;DHT22;42950;52.134;5.578;2023-04-03T16:39:24;11.20;99.90
23721;DHT22;42950;52.134;5.578;2023-04-03T16:41:49;11.10;99.90
23721;DHT22;42950;52.134;5.578;2023-04-03T16:44:15;11.10;99.90
23721;DHT22;42950;52.134;5.578;2023-04-03T16:46:41;10.90;99.90
23721;DHT22;42950;52.134;5.578;2023-04-03T16:49:06;10.80;99.90
23721;DHT22;42950;52.134;5.578;2023-04-03T16:51:32;10.70;99.90
23721;DHT22;42950;52.134;5.578;2023-04-03T16:53:58;10.60;99.90
23721;DHT22;42950;52.134;5.578;2023-04-03T16:56:24;10.60;99.90
23721;DHT22;42950;52.134;5.578;2023-04-03T16:58:52;10.60;99.90
23721;DHT22;42950;52.134;5.578;2023-04-03T17:01:20;10.50;99.90
23721;DHT22;42950;52.134;5.578;2023-04-03T17:03:45;10.40;99.90
23721;DHT22;42950;52.134;5.578;2023-04-03T17:06:14;10.30;99.90